createdAt,value
2022-09-22T00:01:37.806Z,8.60
2022-09-22T00:04:09.441Z,5.28
2022-09-22T00:06:41.023Z,7.62
2022-09-22T00:09:12.324Z,5.55
2022-09-22T00:11:46.410Z,4.12
2022-09-22T00:14:17.760Z,7.22
2022-09-22T00:16:49.372Z,8.20
2022-09-22T00:19:20.644Z,4.12
2022-09-22T00:21:49.706Z,4.22
2022-09-22T00:24:19.959Z,5.47
2022-09-22T00:26:48.746Z,5.05
2022-09-22T00:29:18.013Z,6.05
2022-09-22T00:31:46.974Z,7.92
2022-09-22T00:34:21.104Z,9.53
2022-09-22T00:36:50.846Z,8.13
2022-09-22T00:39:20.320Z,4.17
2022-09-22T00:41:51.431Z,4.40
2022-09-22T00:44:41.015Z,3.67
2022-09-22T00:47:32.169Z,4.22
2022-09-22T00:50:22.323Z,4.33
2022-09-22T00:53:16.083Z,4.45
2022-09-22T00:55:47.946Z,3.47
2022-09-22T00:58:19.966Z,7.43
2022-09-22T01:00:48.686Z,5.30
2022-09-22T01:03:20.489Z,5.55
2022-09-22T01:05:51.737Z,3.87
2022-09-22T01:08:22.506Z,6.10
2022-09-22T01:10:51.832Z,3.60
2022-09-22T01:13:29.263Z,5.72
2022-09-22T01:16:07.054Z,5.47
2022-09-22T01:18:38.818Z,6.00
2022-09-22T01:21:13.440Z,6.05
2022-09-22T01:24:05.775Z,4.47
2022-09-22T01:26:54.068Z,4.17
2022-09-22T01:29:40.614Z,5.55
2022-09-22T01:32:29.041Z,7.83
2022-09-22T01:35:09.678Z,9.38
2022-09-22T01:37:44.169Z,4.58
2022-09-22T01:40:27.957Z,6.40
2022-09-22T01:43:00.033Z,5.03
2022-09-22T01:45:31.484Z,5.80
2022-09-22T01:48:20.955Z,5.00
2022-09-22T01:51:17.569Z,4.85
2022-09-22T01:53:49.258Z,3.75
2022-09-22T01:56:20.999Z,4.15
2022-09-22T01:58:52.707Z,5.05
2022-09-22T02:01:33.592Z,8.33
2022-09-22T02:04:08.042Z,4.62
2022-09-22T02:06:42.912Z,5.67
2022-09-22T02:09:14.461Z,10.88
2022-09-22T02:11:43.262Z,4.37
2022-09-22T02:14:12.136Z,4.80
2022-09-22T02:16:40.979Z,5.75
2022-09-22T02:19:21.537Z,4.12
2022-09-22T02:21:51.153Z,5.62
2022-09-22T02:24:31.857Z,6.00
2022-09-22T02:27:22.808Z,4.22
2022-09-22T02:29:54.771Z,4.15
2022-09-22T02:32:25.684Z,5.08
2022-09-22T02:34:55.730Z,4.15
2022-09-22T02:37:42.447Z,5.50
2022-09-22T02:40:23.477Z,5.65
2022-09-22T02:43:03.844Z,5.15
2022-09-22T02:45:41.425Z,5.22
2022-09-22T02:48:31.020Z,6.67
2022-09-22T02:51:00.098Z,6.67
2022-09-22T02:53:28.710Z,6.15
2022-09-22T02:55:57.391Z,6.15
2022-09-22T02:58:25.963Z,9.95
2022-09-22T03:00:54.504Z,5.17
2022-09-22T03:03:23.323Z,7.87
2022-09-22T03:05:51.863Z,6.28
2022-09-22T03:08:20.493Z,5.70
2022-09-22T03:10:49.069Z,5.53
2022-09-22T03:13:17.931Z,6.60
2022-09-22T03:15:47.164Z,5.78
2022-09-22T03:18:15.895Z,5.22
2022-09-22T03:20:44.734Z,6.40
2022-09-22T03:23:13.326Z,6.50
2022-09-22T03:25:42.010Z,8.38
2022-09-22T03:28:10.595Z,5.22
2022-09-22T03:30:40.330Z,7.53
2022-09-22T03:33:09.047Z,7.90
2022-09-22T03:35:37.618Z,7.67
2022-09-22T03:38:06.430Z,4.80
2022-09-22T03:40:35.100Z,8.48
2022-09-22T03:43:03.727Z,5.40
2022-09-22T03:45:32.341Z,5.97
2022-09-22T03:48:00.956Z,4.00
2022-09-22T03:50:29.714Z,6.95
2022-09-22T03:52:58.922Z,6.58
2022-09-22T03:55:27.720Z,6.55
2022-09-22T03:57:56.311Z,6.75
2022-09-22T04:00:24.947Z,4.70
2022-09-22T04:02:53.628Z,3.92
2022-09-22T04:05:22.300Z,5.30
2022-09-22T04:07:50.920Z,6.28
2022-09-22T04:10:20.021Z,6.42
2022-09-22T04:12:48.808Z,6.85
2022-09-22T04:15:17.588Z,6.50
2022-09-22T04:17:46.240Z,6.97
2022-09-22T04:20:14.840Z,8.60
2022-09-22T04:22:43.399Z,7.92
2022-09-22T04:25:12.029Z,7.47
2022-09-22T04:27:40.602Z,5.53
2022-09-22T04:30:10.165Z,6.12
2022-09-22T04:32:39.103Z,3.80
2022-09-22T04:35:08.320Z,4.55
2022-09-22T04:37:37.088Z,6.42
2022-09-22T04:40:06.142Z,4.83
2022-09-22T04:42:34.762Z,5.92
2022-09-22T04:45:03.324Z,7.22
2022-09-22T04:47:32.014Z,7.85
2022-09-22T04:50:01.040Z,6.70
2022-09-22T04:52:29.596Z,5.83
2022-09-22T04:54:58.169Z,5.05
2022-09-22T04:57:26.809Z,9.05
2022-09-22T04:59:55.356Z,7.55
2022-09-22T05:02:23.989Z,5.45
2022-09-22T05:04:52.540Z,5.90
2022-09-22T05:07:21.129Z,6.03
2022-09-22T05:09:49.714Z,6.33
2022-09-22T05:12:19.936Z,4.37
2022-09-22T05:14:48.666Z,4.58
2022-09-22T05:17:17.228Z,6.20
2022-09-22T05:19:46.464Z,5.35
2022-09-22T05:22:23.690Z,5.53
2022-09-22T05:24:52.466Z,6.37
2022-09-22T05:27:21.048Z,5.35
2022-09-22T05:29:49.591Z,6.42
2022-09-22T05:32:18.209Z,7.53
2022-09-22T05:34:46.767Z,5.35
2022-09-22T05:37:15.385Z,6.15
2022-09-22T05:39:44.141Z,11.40
2022-09-22T05:42:13.015Z,4.33
2022-09-22T05:44:41.643Z,7.45
2022-09-22T05:47:11.235Z,6.05
2022-09-22T05:49:40.082Z,5.83
2022-09-22T05:52:08.903Z,5.28
2022-09-22T05:54:37.748Z,6.37
2022-09-22T05:57:06.487Z,8.10
2022-09-22T05:59:35.167Z,7.05
2022-09-22T06:02:18.033Z,4.37
2022-09-22T06:04:36.915Z,8.35
2022-09-22T06:07:06.289Z,6.28
2022-09-22T06:09:35.187Z,6.12
2022-09-22T06:12:04.134Z,7.10
2022-09-22T06:14:32.725Z,5.05
2022-09-22T06:17:01.678Z,8.53
2022-09-22T06:19:30.229Z,6.30
2022-09-22T06:21:58.775Z,6.08
2022-09-22T06:24:28.348Z,4.08
2022-09-22T06:26:57.555Z,7.42
2022-09-22T06:29:27.274Z,3.47
2022-09-22T06:31:56.193Z,6.60
2022-09-22T06:34:27.083Z,6.05
2022-09-22T06:36:59.453Z,4.10
2022-09-22T06:39:28.246Z,4.90
2022-09-22T06:41:57.274Z,4.55
2022-09-22T06:44:27.188Z,5.42
2022-09-22T06:46:55.928Z,5.50
2022-09-22T06:49:24.566Z,6.55
2022-09-22T06:51:53.144Z,5.17
2022-09-22T06:54:24.779Z,5.60
2022-09-22T06:56:52.337Z,6.50
2022-09-22T06:59:21.425Z,5.83
2022-09-22T07:01:50.357Z,4.30
2022-09-22T07:04:20.234Z,4.30
2022-09-22T07:06:50.634Z,6.25
2022-09-22T07:09:19.935Z,4.87
2022-09-22T07:11:49.287Z,7.45
2022-09-22T07:14:19.510Z,4.42
2022-09-22T07:16:48.284Z,6.67
2022-09-22T07:19:16.855Z,5.05
2022-09-22T07:21:47.297Z,5.00
2022-09-22T07:26:44.790Z,4.83
2022-09-22T07:29:13.781Z,6.97
2022-09-22T07:31:43.289Z,3.33
2022-09-22T07:34:12.838Z,4.08
2022-09-22T07:36:41.633Z,5.47
2022-09-22T07:39:12.530Z,7.53
2022-09-22T07:41:44.016Z,5.80
2022-09-22T07:44:35.580Z,4.87
2022-09-22T07:47:05.284Z,6.80
2022-09-22T07:49:34.049Z,5.40
2022-09-22T07:54:30.561Z,4.60
2022-09-22T08:02:01.077Z,5.97
2022-09-22T08:04:31.324Z,4.30
2022-09-22T08:09:29.647Z,5.42
2022-09-22T09:02:56.134Z,5.67
2022-09-22T09:10:49.068Z,4.83
2022-09-22T09:13:37.285Z,6.37
2022-09-22T09:16:27.067Z,5.78
2022-09-22T09:18:58.855Z,5.20
2022-09-22T09:21:29.643Z,4.70
2022-09-22T09:26:34.005Z,7.08
2022-09-22T09:29:08.273Z,5.28
2022-09-22T09:32:05.088Z,4.67
2022-09-22T09:34:33.901Z,4.08
2022-09-22T09:37:08.367Z,3.02
2022-09-22T09:39:40.367Z,2.52
2022-09-22T09:42:29.745Z,5.33
2022-09-22T09:45:00.335Z,3.77
2022-09-22T09:47:41.110Z,5.40
2022-09-22T09:50:12.044Z,4.62
2022-09-22T09:52:42.238Z,2.90
2022-09-22T09:55:45.131Z,3.53
2022-09-22T09:58:18.497Z,3.67
2022-09-22T10:00:58.923Z,2.55
2022-09-22T10:03:33.201Z,3.02
2022-09-22T10:06:06.300Z,2.52
2022-09-22T10:08:44.589Z,2.30
2022-09-22T10:11:15.137Z,2.10
2022-09-22T10:13:44.631Z,3.10
2022-09-22T10:16:30.714Z,2.37
2022-09-22T10:19:25.050Z,1.70
2022-09-22T10:21:55.223Z,2.20
2022-09-22T10:24:35.816Z,3.12
2022-09-22T10:27:07.488Z,2.52
2022-09-22T10:29:35.744Z,4.47
2022-09-22T10:32:15.992Z,2.57
2022-09-22T10:34:50.592Z,2.95
2022-09-22T10:37:22.227Z,2.65
2022-09-22T10:39:52.894Z,2.17
2022-09-22T10:42:40.905Z,4.47
2022-09-22T10:45:19.399Z,2.17
2022-09-22T10:48:00.407Z,2.27
2022-09-22T10:50:36.603Z,3.12
2022-09-22T10:53:27.406Z,3.10
2022-09-22T10:56:11.290Z,2.77
2022-09-22T10:59:16.467Z,2.15
2022-09-22T11:02:15.123Z,3.37
2022-09-22T11:05:02.983Z,2.30
2022-09-22T11:08:10.628Z,1.90
2022-09-22T11:11:03.062Z,2.10
2022-09-22T11:13:37.594Z,2.50
2022-09-22T11:16:34.401Z,2.20
2022-09-22T11:19:06.022Z,2.27
2022-09-22T11:21:59.532Z,2.50
2022-09-22T11:24:46.190Z,2.45
2022-09-22T11:27:20.725Z,2.67
2022-09-22T11:30:11.212Z,2.77
2022-09-22T11:33:10.511Z,3.95
2022-09-22T11:36:15.640Z,2.00
2022-09-22T11:39:08.240Z,2.40
2022-09-22T11:41:47.403Z,2.25
2022-09-22T11:44:31.232Z,2.42
2022-09-22T11:47:20.595Z,2.15
2022-09-22T11:50:22.857Z,2.30
2022-09-22T11:52:58.409Z,1.20
2022-09-22T11:55:43.744Z,1.45
2022-09-22T11:58:14.870Z,1.55
2022-09-22T12:00:47.053Z,1.77
2022-09-22T12:03:18.807Z,1.70
2022-09-22T12:06:12.578Z,2.33
2022-09-22T12:08:50.239Z,1.52
2022-09-22T12:11:20.391Z,3.70
2022-09-22T12:13:52.225Z,1.77
2022-09-22T12:16:43.507Z,1.60
2022-09-22T12:19:15.165Z,2.50
2022-09-22T12:21:52.578Z,1.77
2022-09-22T12:24:21.570Z,1.60
2022-09-22T12:26:51.181Z,1.47
2022-09-22T12:29:31.757Z,1.40
2022-09-22T12:32:00.830Z,2.00
2022-09-22T12:34:35.050Z,1.85
2022-09-22T12:37:13.022Z,2.70
2022-09-22T12:39:47.541Z,2.20
2022-09-22T12:42:37.390Z,2.10
2022-09-22T12:45:12.247Z,1.60
2022-09-22T12:47:42.829Z,2.15
2022-09-22T12:50:29.430Z,2.00
2022-09-22T12:53:18.844Z,1.20
2022-09-22T12:55:48.743Z,1.50
2022-09-22T12:58:25.851Z,1.70
2022-09-22T13:00:57.734Z,1.40
2022-09-22T13:03:30.571Z,1.60
2022-09-22T13:06:04.284Z,1.15
2022-09-22T13:08:36.650Z,2.12
2022-09-22T13:11:07.613Z,1.67
2022-09-22T13:13:39.224Z,2.20
2022-09-22T13:16:19.584Z,1.30
2022-09-22T13:18:59.267Z,1.60
2022-09-22T13:21:30.345Z,1.40
2022-09-22T13:24:01.571Z,1.90
2022-09-22T13:26:41.807Z,1.30
2022-09-22T13:29:21.563Z,1.50
2022-09-22T13:31:53.028Z,1.40
2022-09-22T13:34:33.229Z,1.72
2022-09-22T13:37:07.943Z,2.22
2022-09-22T13:39:43.461Z,1.35
2022-09-22T13:42:20.648Z,1.37
2022-09-22T13:45:01.151Z,2.70
2022-09-22T13:47:30.624Z,1.10
2022-09-22T13:50:05.115Z,1.30
2022-09-22T13:52:36.849Z,1.75
2022-09-22T13:55:17.360Z,1.30
2022-09-22T13:57:46.552Z,1.90
2022-09-22T14:00:31.310Z,1.20
2022-09-22T14:03:04.570Z,2.03
2022-09-22T14:05:36.892Z,1.30
2022-09-22T14:08:46.956Z,1.00
2022-09-22T14:11:28.101Z,1.57
2022-09-22T14:14:07.541Z,1.12
2022-09-22T14:19:18.176Z,1.17
2022-09-22T14:25:51.967Z,1.02
2022-09-22T14:59:52.901Z,1.80
2022-09-22T15:02:34.910Z,1.20
2022-09-22T15:05:08.718Z,1.07
2022-09-22T15:07:50.043Z,1.70
2022-09-22T15:10:42.113Z,1.30
2022-09-22T15:13:47.067Z,1.37
2022-09-22T15:19:28.606Z,1.67
2022-09-22T15:21:55.618Z,1.10
2022-09-22T15:24:31.492Z,1.57
2022-09-22T15:27:25.782Z,1.20
2022-09-22T15:30:02.683Z,1.00
2022-09-22T15:32:37.118Z,1.40
2022-09-22T15:35:08.706Z,1.07
2022-09-22T15:37:40.436Z,0.80
2022-09-22T15:40:18.260Z,1.10
2022-09-22T15:43:02.525Z,1.20
2022-09-22T15:45:21.427Z,1.10
2022-09-22T15:47:56.094Z,1.00
2022-09-22T15:50:28.960Z,1.65
2022-09-22T15:52:57.978Z,2.65
2022-09-22T15:55:26.624Z,2.20
2022-09-22T15:57:57.704Z,1.27
2022-09-22T16:00:27.589Z,1.00
2022-09-22T16:02:56.194Z,1.47
2022-09-22T16:05:26.459Z,1.30
2022-09-22T16:07:56.280Z,0.95
2022-09-22T16:10:29.158Z,1.67
2022-09-22T16:22:52.391Z,1.92
2022-09-22T16:25:21.721Z,1.20
2022-09-22T16:27:51.853Z,0.78
2022-09-22T16:30:25.242Z,0.90
2022-09-22T16:32:51.363Z,1.45
2022-09-22T16:35:20.494Z,2.35
2022-09-22T16:38:08.481Z,3.65
2022-09-22T16:40:37.111Z,1.10
2022-09-22T16:46:21.275Z,1.65
2022-09-22T16:51:54.580Z,2.45
2022-09-22T16:54:24.693Z,2.35
2022-09-22T16:56:59.220Z,0.80
2022-09-22T16:59:27.896Z,1.67
2022-09-22T17:01:57.060Z,1.20
2022-09-22T17:04:25.676Z,1.10
2022-09-22T17:06:54.967Z,1.95
2022-09-22T17:09:23.549Z,2.60
2022-09-22T17:11:52.604Z,1.77
2022-09-22T17:14:22.967Z,2.27
2022-09-22T17:17:12.412Z,1.60
2022-09-22T17:19:40.991Z,2.55
2022-09-22T17:22:09.554Z,1.50
2022-09-22T17:24:39.036Z,3.55
2022-09-22T17:27:07.764Z,2.80
2022-09-22T17:29:36.424Z,1.95
2022-09-22T17:32:07.975Z,1.75
2022-09-22T17:34:41.149Z,2.58
2022-09-22T17:37:11.380Z,1.50
2022-09-22T17:39:39.945Z,1.85
2022-09-22T17:42:08.544Z,1.95
2022-09-22T17:44:38.657Z,1.27
2022-09-22T17:47:25.210Z,3.62
2022-09-22T17:50:11.918Z,1.65
2022-09-22T17:52:42.104Z,1.57
2022-09-22T17:55:16.901Z,2.08
2022-09-22T17:57:46.969Z,1.30
2022-09-22T18:00:20.124Z,1.92
2022-09-22T18:02:50.536Z,3.60
2022-09-22T18:05:21.073Z,2.37
2022-09-22T18:07:53.642Z,3.33
2022-09-22T18:10:20.756Z,2.90
2022-09-22T18:12:49.301Z,2.77
2022-09-22T18:15:18.231Z,3.10
2022-09-22T18:17:46.785Z,2.50
2022-09-22T18:20:19.485Z,1.35
2022-09-22T18:22:49.191Z,3.75
2022-09-22T18:25:23.387Z,2.72
2022-09-22T18:27:53.886Z,2.25
2022-09-22T18:30:23.171Z,2.30
2022-09-22T18:32:52.148Z,2.98
2022-09-22T18:35:21.119Z,2.08
2022-09-22T18:37:52.894Z,2.35
2022-09-22T18:40:21.479Z,2.20
2022-09-22T18:42:50.112Z,3.87
2022-09-22T18:45:19.471Z,4.28
2022-09-22T18:47:48.006Z,3.45
2022-09-22T18:50:16.703Z,2.37
2022-09-22T18:52:45.841Z,1.92
2022-09-22T18:55:16.491Z,2.27
2022-09-22T18:57:46.703Z,3.55
2022-09-22T19:00:16.182Z,3.75
2022-09-22T19:02:46.673Z,2.52
2022-09-22T19:05:15.376Z,1.60
2022-09-22T19:07:45.580Z,1.90
2022-09-22T19:10:18.757Z,2.90
2022-09-22T19:12:47.308Z,2.20
2022-09-22T19:15:18.697Z,1.85
2022-09-22T19:17:50.199Z,3.77
2022-09-22T19:20:22.786Z,3.72
2022-09-22T19:22:52.319Z,1.95
2022-09-22T19:25:22.163Z,4.05
2022-09-22T19:27:52.575Z,3.35
2022-09-22T19:30:24.009Z,2.08
2022-09-22T19:32:52.047Z,2.90
2022-09-22T19:35:20.830Z,1.92
2022-09-22T19:37:51.262Z,5.17
2022-09-22T19:40:20.262Z,2.77
2022-09-22T19:42:49.753Z,4.25
2022-09-22T19:45:19.119Z,3.35
2022-09-22T19:47:47.670Z,2.65
2022-09-22T19:50:16.834Z,4.47
2022-09-22T19:52:45.390Z,4.37
2022-09-22T19:55:15.371Z,5.42
2022-09-22T19:57:44.215Z,6.47
2022-09-22T20:00:19.940Z,5.47
2022-09-22T20:02:48.686Z,7.28
2022-09-22T20:05:22.046Z,2.95
2022-09-22T20:07:50.674Z,3.50
2022-09-22T20:10:22.011Z,3.95
2022-09-22T20:12:52.294Z,6.22
2022-09-22T20:15:21.098Z,2.77
2022-09-22T20:17:49.642Z,4.08
2022-09-22T20:20:21.614Z,4.22
2022-09-22T20:23:00.736Z,3.23
2022-09-22T20:25:31.892Z,3.87
2022-09-22T20:28:00.700Z,6.33
2022-09-22T20:30:29.401Z,4.45
2022-09-22T20:32:58.281Z,5.47
2022-09-22T20:35:27.053Z,3.77
2022-09-22T20:37:57.526Z,3.90
2022-09-22T20:40:26.974Z,3.10
2022-09-22T20:42:55.609Z,3.45
2022-09-22T20:45:24.645Z,2.52
2022-09-22T20:47:53.179Z,3.52
2022-09-22T20:50:21.741Z,3.33
2022-09-22T20:52:50.793Z,5.83
2022-09-22T20:55:19.362Z,2.92
2022-09-22T20:57:47.892Z,2.60
2022-09-22T21:00:16.622Z,5.83
2022-09-22T21:02:45.156Z,4.83
2022-09-22T21:05:13.711Z,5.35
2022-09-22T21:07:42.256Z,4.80
2022-09-22T21:10:29.094Z,4.05
2022-09-22T21:12:59.275Z,3.92
2022-09-22T21:15:29.783Z,6.22
2022-09-22T21:17:58.387Z,4.35
2022-09-22T21:20:27.082Z,3.00
2022-09-22T21:22:55.796Z,4.17
2022-09-22T21:25:25.112Z,7.60
2022-09-22T21:27:53.867Z,6.22
2022-09-22T21:30:22.393Z,8.13
2022-09-22T21:32:51.323Z,6.60
2022-09-22T21:35:19.859Z,5.47
2022-09-22T21:37:48.476Z,7.62
2022-09-22T21:40:18.423Z,7.08
2022-09-22T21:42:47.044Z,6.55
2022-09-22T21:45:15.652Z,5.60
2022-09-22T21:47:44.658Z,7.40
2022-09-22T21:50:13.230Z,7.10
2022-09-22T21:52:43.353Z,7.05
2022-09-22T21:55:11.881Z,5.92
2022-09-22T21:57:40.442Z,6.87
2022-09-22T22:00:09.486Z,5.55
2022-09-22T22:02:39.672Z,4.45
2022-09-22T22:05:08.496Z,5.05
2022-09-22T22:07:37.038Z,5.15
2022-09-22T22:10:05.823Z,4.00
2022-09-22T22:12:35.353Z,6.00
2022-09-22T22:15:05.148Z,6.30
2022-09-22T22:17:33.709Z,5.30
2022-09-22T22:20:02.436Z,5.55
2022-09-22T22:22:31.953Z,5.12
2022-09-22T22:25:01.979Z,4.87
2022-09-22T22:27:30.538Z,4.10
2022-09-22T22:29:59.084Z,8.15
2022-09-22T22:32:27.654Z,3.87
2022-09-22T22:34:56.181Z,4.30
2022-09-22T22:37:24.710Z,4.83
2022-09-22T22:39:53.287Z,7.15
2022-09-22T22:42:21.836Z,2.83
2022-09-22T22:44:50.368Z,4.22
2022-09-22T22:47:18.920Z,4.70
2022-09-22T22:49:48.132Z,3.37
2022-09-22T22:52:16.664Z,3.12
2022-09-22T22:54:45.248Z,3.17
2022-09-22T22:57:13.783Z,2.62
2022-09-22T22:59:42.488Z,4.97
2022-09-22T23:02:12.500Z,5.12
2022-09-22T23:04:41.044Z,5.00
2022-09-22T23:07:09.574Z,4.10
2022-09-22T23:09:38.131Z,3.35
2022-09-22T23:12:07.465Z,4.28
2022-09-22T23:14:37.021Z,3.27
2022-09-22T23:17:05.563Z,4.37
2022-09-22T23:19:34.110Z,4.47
2022-09-22T23:22:04.023Z,2.75
2022-09-22T23:24:32.495Z,2.70
2022-09-22T23:27:01.043Z,5.55
2022-09-22T23:29:29.587Z,5.00
2022-09-22T23:31:58.561Z,4.55
2022-09-22T23:34:27.548Z,4.50
2022-09-22T23:36:56.161Z,3.30
2022-09-22T23:39:24.877Z,5.80
2022-09-22T23:41:53.953Z,2.70
2022-09-22T23:44:22.532Z,4.03
2022-09-22T23:46:51.192Z,6.10
2022-09-22T23:49:19.873Z,4.55
2022-09-22T23:51:48.476Z,2.92
2022-09-22T23:54:17.039Z,3.22
2022-09-22T23:56:46.078Z,3.80
2022-09-22T23:59:14.664Z,4.50
